Terminal Aerodrome Forecast
Issued by NWS

Current Version | Previous Version | Graphics & Text | Print | Product List | Glossary On
Versions: 1 2 3 4 5 6 7 8 9 10 11 12 13 14 15 16 17 18 19 20 21 22 23 24 25 26 27 28 29
000
FTUS41 KILN 271042 AAB
TAFLUK
TAF AMD
KLUK 271042Z 2711/2806 03003KT 2SM BR SCT120 OVC250
     FM271400 15006KT P6SM SCT050 OVC250
     FM280000 VRB03KT P6SM BKN250=

USA.gov is the U.S. government's official web portal to all federal, state and local government web resources and services.